createdAt,value
2018-12-21T00:00:51.033Z,8.50
2018-12-21T00:03:18.747Z,8.60
2018-12-21T00:05:46.412Z,8.60
2018-12-21T00:08:14.070Z,8.50
2018-12-21T00:10:41.738Z,8.60
2018-12-21T00:13:09.342Z,8.60
2018-12-21T00:15:36.952Z,8.60
2018-12-21T00:18:04.602Z,8.60
2018-12-21T00:20:32.258Z,8.50
2018-12-21T00:22:59.921Z,8.50
2018-12-21T00:25:27.580Z,8.50
2018-12-21T00:27:55.325Z,8.50
2018-12-21T00:30:22.606Z,8.50
2018-12-21T00:32:56.146Z,8.60
2018-12-21T00:35:29.741Z,8.60
2018-12-21T00:38:03.173Z,8.50
2018-12-21T00:40:36.526Z,8.60
2018-12-21T00:46:26.052Z,8.60
2018-12-21T00:48:54.240Z,8.60
2018-12-21T00:51:30.029Z,8.70
2018-12-21T00:53:51.641Z,8.60
2018-12-21T00:56:19.269Z,8.60
2018-12-21T00:58:46.863Z,8.70
2018-12-21T01:01:14.580Z,8.70
2018-12-21T01:03:42.250Z,8.80
2018-12-21T01:06:09.974Z,8.80
2018-12-21T01:08:37.761Z,8.10
2018-12-21T01:11:05.528Z,8.80
2018-12-21T01:13:33.209Z,8.30
2018-12-21T01:16:00.949Z,8.70
2018-12-21T01:18:28.711Z,8.80
2018-12-21T01:20:56.474Z,8.60
2018-12-21T01:23:24.148Z,8.80
2018-12-21T01:25:53.229Z,8.90
2018-12-21T01:28:21.397Z,8.70
2018-12-21T01:30:48.992Z,8.80
2018-12-21T01:33:16.735Z,8.90
2018-12-21T01:35:44.341Z,8.80
2018-12-21T01:38:11.926Z,8.80
2018-12-21T01:40:39.612Z,8.80
2018-12-21T01:43:07.361Z,8.80
2018-12-21T01:45:35.124Z,8.90
2018-12-21T01:48:02.887Z,8.90
2018-12-21T01:50:30.755Z,8.90
2018-12-21T01:52:58.431Z,8.90
2018-12-21T01:55:26.174Z,8.90
2018-12-21T01:57:53.938Z,8.80
2018-12-21T02:00:21.701Z,8.90
2018-12-21T02:02:49.281Z,8.90
2018-12-21T02:05:16.954Z,8.90
2018-12-21T02:07:44.682Z,8.90
2018-12-21T02:10:12.287Z,8.90
2018-12-21T02:12:40.412Z,8.80
2018-12-21T02:15:08.009Z,8.80
2018-12-21T02:17:35.642Z,8.70
2018-12-21T02:20:03.599Z,8.80
2018-12-21T02:22:31.361Z,8.70
2018-12-21T02:24:59.123Z,8.70
2018-12-21T02:27:26.886Z,8.70
2018-12-21T02:29:54.751Z,8.70
2018-12-21T02:32:22.423Z,8.70
2018-12-21T02:34:50.177Z,8.80
2018-12-21T02:37:17.846Z,8.80
2018-12-21T02:39:46.190Z,8.90
2018-12-21T02:42:13.898Z,8.80
2018-12-21T02:44:41.595Z,8.90
2018-12-21T02:47:09.296Z,9.00
2018-12-21T02:49:36.973Z,9.00
2018-12-21T02:52:05.721Z,9.00
2018-12-21T02:54:33.592Z,9.00
2018-12-21T02:57:01.466Z,8.90
2018-12-21T02:59:29.146Z,9.00
2018-12-21T03:01:56.812Z,9.00
2018-12-21T03:04:24.404Z,9.00
2018-12-21T03:06:52.023Z,8.90
2018-12-21T03:09:19.828Z,8.70
2018-12-21T03:11:47.550Z,8.60
2018-12-21T03:14:15.301Z,8.40
2018-12-21T03:16:42.897Z,8.30
2018-12-21T03:19:10.622Z,8.20
2018-12-21T03:21:38.447Z,8.20
2018-12-21T03:24:06.349Z,8.30
2018-12-21T03:26:34.034Z,8.40
2018-12-21T03:29:02.613Z,8.30
2018-12-21T03:31:30.270Z,8.40
2018-12-21T03:33:57.856Z,8.40
2018-12-21T03:36:25.454Z,8.30
2018-12-21T03:38:53.133Z,8.30
2018-12-21T03:41:20.803Z,8.50
2018-12-21T03:43:48.385Z,8.30
2018-12-21T03:46:16.021Z,8.50
2018-12-21T03:48:43.684Z,8.50
2018-12-21T03:51:11.977Z,8.50
2018-12-21T03:53:39.620Z,8.50
2018-12-21T03:56:07.366Z,8.50
2018-12-21T03:58:35.041Z,8.50
2018-12-21T04:01:02.642Z,8.50
2018-12-21T04:03:30.362Z,8.50
2018-12-21T04:05:58.022Z,8.70
2018-12-21T04:08:25.779Z,8.70
2018-12-21T04:10:53.844Z,8.70
2018-12-21T04:13:21.660Z,8.70
2018-12-21T04:15:49.468Z,8.50
2018-12-21T04:18:17.249Z,8.40
2018-12-21T04:20:44.891Z,8.40
2018-12-21T04:23:12.573Z,8.30
2018-12-21T04:25:40.172Z,8.30
2018-12-21T04:28:07.782Z,8.40
2018-12-21T04:30:35.445Z,8.30
2018-12-21T04:33:03.105Z,8.40
2018-12-21T04:35:30.712Z,8.40
2018-12-21T04:37:58.323Z,8.30
2018-12-21T04:40:25.984Z,8.20
2018-12-21T04:42:53.645Z,8.10
2018-12-21T04:45:21.232Z,8.10
2018-12-21T04:47:49.666Z,8.00
2018-12-21T04:50:17.326Z,7.90
2018-12-21T04:52:45.020Z,7.90
2018-12-21T04:55:12.618Z,7.90
2018-12-21T04:57:40.322Z,7.90
2018-12-21T05:00:08.189Z,7.90
2018-12-21T05:02:35.857Z,7.90
2018-12-21T05:05:03.618Z,7.80
2018-12-21T05:07:31.907Z,7.80
2018-12-21T05:09:59.735Z,7.80
2018-12-21T05:12:27.430Z,7.80
2018-12-21T05:14:55.042Z,7.80
2018-12-21T05:17:22.639Z,7.90
2018-12-21T05:19:50.288Z,7.80
2018-12-21T05:22:27.890Z,7.80
2018-12-21T05:24:55.585Z,7.90
2018-12-21T05:27:23.301Z,7.90
2018-12-21T05:29:50.958Z,7.90
2018-12-21T05:32:18.662Z,7.90
2018-12-21T05:34:46.406Z,7.90
2018-12-21T05:37:14.100Z,7.90
2018-12-21T05:39:41.805Z,7.90
2018-12-21T05:42:09.512Z,7.90
2018-12-21T05:44:37.168Z,7.90
2018-12-21T05:47:05.002Z,7.90
2018-12-21T05:49:32.655Z,7.90
2018-12-21T05:52:00.304Z,7.90
2018-12-21T05:54:28.125Z,7.90
2018-12-21T05:56:55.808Z,7.90
2018-12-21T05:59:23.496Z,7.90
2018-12-21T06:01:51.133Z,7.90
2018-12-21T06:04:18.805Z,7.90
2018-12-21T06:06:46.520Z,7.90
2018-12-21T06:09:14.255Z,7.90
2018-12-21T06:11:41.890Z,7.90
2018-12-21T06:14:09.632Z,7.90
2018-12-21T06:16:37.282Z,7.80
2018-12-21T06:19:04.897Z,7.90
2018-12-21T06:21:32.651Z,7.90
2018-12-21T06:24:00.265Z,7.90
2018-12-21T06:26:28.099Z,7.90
2018-12-21T06:28:55.840Z,7.90
2018-12-21T06:31:23.565Z,7.90
2018-12-21T06:33:51.318Z,7.90
2018-12-21T06:36:18.981Z,7.90
2018-12-21T06:38:46.636Z,7.90
2018-12-21T06:41:14.414Z,7.90
2018-12-21T06:43:42.054Z,7.90
2018-12-21T06:46:14.137Z,7.90
2018-12-21T06:48:39.432Z,7.90
2018-12-21T06:51:07.171Z,7.90
2018-12-21T06:53:34.922Z,7.90
2018-12-21T06:56:02.559Z,8.00
2018-12-21T06:58:30.269Z,8.00
2018-12-21T07:00:57.904Z,8.00
2018-12-21T07:03:25.570Z,8.00
2018-12-21T07:05:53.165Z,8.00
2018-12-21T07:08:20.996Z,8.00
2018-12-21T07:10:48.740Z,8.10
2018-12-21T07:13:16.416Z,8.10
2018-12-21T07:15:44.166Z,8.10
2018-12-21T07:18:11.811Z,8.10
2018-12-21T07:20:39.478Z,8.10
2018-12-21T07:23:07.139Z,8.20
2018-12-21T07:25:34.819Z,8.20
2018-12-21T07:28:02.589Z,8.20
2018-12-21T07:30:30.214Z,8.20
2018-12-21T07:32:57.894Z,8.20
2018-12-21T07:35:25.546Z,8.20
2018-12-21T07:37:53.353Z,8.20
2018-12-21T07:40:21.010Z,8.30
2018-12-21T07:42:48.786Z,8.30
2018-12-21T07:45:16.520Z,8.30
2018-12-21T07:47:44.263Z,8.40
2018-12-21T07:50:12.003Z,8.40
2018-12-21T07:52:40.434Z,8.40
2018-12-21T07:55:08.908Z,8.50
2018-12-21T08:00:39.449Z,8.60
2018-12-21T08:03:09.804Z,8.60
2018-12-21T08:05:39.111Z,8.60
2018-12-21T08:08:06.795Z,8.60
2018-12-21T08:10:34.625Z,8.70
2018-12-21T08:13:03.330Z,8.70
2018-12-21T08:15:31.036Z,8.70
2018-12-21T08:18:00.259Z,8.70
2018-12-21T08:20:28.160Z,8.80
2018-12-21T08:22:55.926Z,8.80
2018-12-21T08:25:23.681Z,8.70
2018-12-21T08:27:51.545Z,8.70
2018-12-21T08:30:19.232Z,8.70
2018-12-21T08:32:46.883Z,8.70
2018-12-21T08:35:14.743Z,8.70
2018-12-21T08:37:42.512Z,8.60
2018-12-21T08:40:10.410Z,8.60
2018-12-21T08:42:38.350Z,8.60
2018-12-21T08:45:07.225Z,8.60
2018-12-21T08:47:35.322Z,8.60
2018-12-21T08:50:03.615Z,8.60
2018-12-21T08:52:31.454Z,8.60
2018-12-21T08:54:59.464Z,8.60
2018-12-21T08:57:27.082Z,8.70
2018-12-21T08:59:55.087Z,8.70
2018-12-21T09:02:23.056Z,8.70
2018-12-21T09:04:50.863Z,8.60
2018-12-21T09:07:18.615Z,8.60
2018-12-21T09:09:46.591Z,8.70
2018-12-21T09:12:15.213Z,8.70
2018-12-21T09:14:43.027Z,8.70
2018-12-21T09:17:10.722Z,8.60
2018-12-21T09:19:38.497Z,8.60
2018-12-21T09:22:06.206Z,8.60
2018-12-21T09:24:34.027Z,8.70
2018-12-21T09:27:01.685Z,8.70
2018-12-21T09:29:29.311Z,8.70
2018-12-21T09:32:04.837Z,8.70
2018-12-21T09:34:26.769Z,8.70
2018-12-21T09:36:54.535Z,8.60
2018-12-21T09:39:22.288Z,8.70
2018-12-21T09:41:49.976Z,8.70
2018-12-21T09:44:17.813Z,8.70
2018-12-21T09:46:45.476Z,8.70
2018-12-21T09:49:13.324Z,8.70
2018-12-21T09:51:41.077Z,8.80
2018-12-21T09:54:09.991Z,8.80
2018-12-21T09:56:38.409Z,8.90
2018-12-21T09:59:16.689Z,8.90
2018-12-21T10:01:45.659Z,9.00
2018-12-21T10:04:13.554Z,9.00
2018-12-21T10:06:41.772Z,9.10
2018-12-21T10:09:09.996Z,9.30
2018-12-21T10:11:38.460Z,9.40
2018-12-21T10:14:06.329Z,9.60
2018-12-21T10:16:34.466Z,10.00
2018-12-21T10:19:05.434Z,10.20
2018-12-21T10:21:34.019Z,10.60
2018-12-21T10:24:01.784Z,10.80
2018-12-21T10:26:30.877Z,11.00
2018-12-21T10:29:03.377Z,11.00
2018-12-21T10:31:33.250Z,11.00
2018-12-21T10:34:01.123Z,11.10
2018-12-21T10:36:30.794Z,11.20
2018-12-21T10:39:06.786Z,11.30
2018-12-21T10:44:35.264Z,11.40
2018-12-21T10:47:07.042Z,11.40
2018-12-21T10:49:35.454Z,11.50
2018-12-21T10:52:06.047Z,11.60
2018-12-21T10:54:34.881Z,11.70
2018-12-21T10:57:04.133Z,11.70
2018-12-21T10:59:43.309Z,11.80
2018-12-21T11:02:08.261Z,11.90
2018-12-21T11:04:36.738Z,11.90
2018-12-21T11:07:06.153Z,12.00
2018-12-21T11:09:34.378Z,12.20
2018-12-21T11:12:02.014Z,12.20
2018-12-21T11:14:30.319Z,12.20
2018-12-21T11:16:58.730Z,12.20
2018-12-21T11:19:26.414Z,12.30
2018-12-21T11:21:57.427Z,12.30
2018-12-21T11:24:35.212Z,12.40
2018-12-21T11:27:03.396Z,12.40
2018-12-21T11:29:36.466Z,12.40
2018-12-21T11:32:04.550Z,12.70
2018-12-21T11:34:32.896Z,12.70
2018-12-21T11:37:00.900Z,12.80
2018-12-21T11:39:29.030Z,12.90
2018-12-21T11:41:57.366Z,13.00
2018-12-21T11:44:25.580Z,13.00
2018-12-21T11:50:03.716Z,12.90
2018-12-21T11:52:35.018Z,13.00
2018-12-21T11:55:04.499Z,13.00
2018-12-21T11:57:32.174Z,13.00
2018-12-21T12:00:00.214Z,12.80
2018-12-21T12:02:28.884Z,12.70
2018-12-21T12:04:59.438Z,12.70
2018-12-21T12:07:27.403Z,12.80
2018-12-21T12:09:55.880Z,12.90
2018-12-21T12:12:34.175Z,13.10
2018-12-21T12:18:18.172Z,13.30
2018-12-21T12:20:46.042Z,13.30
2018-12-21T12:23:14.962Z,13.20
2018-12-21T12:25:43.017Z,13.10
2018-12-21T12:28:11.966Z,13.00
2018-12-21T12:30:40.299Z,13.00
2018-12-21T12:33:09.675Z,12.90
2018-12-21T12:35:39.739Z,12.70
2018-12-21T12:38:08.178Z,12.60
2018-12-21T12:40:37.927Z,12.60
2018-12-21T12:43:07.204Z,12.60
2018-12-21T12:45:36.719Z,12.50
2018-12-21T12:48:07.653Z,12.50
2018-12-21T12:50:39.650Z,12.40
2018-12-21T12:53:08.742Z,12.40
2018-12-21T12:55:38.040Z,12.40
2018-12-21T12:58:06.110Z,12.50
2018-12-21T13:00:34.487Z,12.70
2018-12-21T20:13:26.496Z,11.20
2018-12-21T20:15:54.255Z,11.30
2018-12-21T20:18:21.845Z,11.30
2018-12-21T20:20:49.480Z,11.30
2018-12-21T20:23:27.511Z,11.20
2018-12-21T20:25:55.091Z,11.20
2018-12-21T20:28:22.664Z,11.20
2018-12-21T20:30:50.299Z,11.20
2018-12-21T20:33:18.215Z,11.20
2018-12-21T20:35:45.790Z,11.20
2018-12-21T20:38:21.088Z,11.10
2018-12-21T20:40:44.017Z,11.10
2018-12-21T20:43:11.695Z,11.10
2018-12-21T20:45:39.486Z,11.10
2018-12-21T20:48:07.024Z,11.10
2018-12-21T20:50:34.640Z,11.00
2018-12-21T20:53:02.254Z,11.00
2018-12-21T20:55:30.049Z,10.90
2018-12-21T20:57:57.834Z,10.80
2018-12-21T21:00:25.515Z,10.80
2018-12-21T21:02:53.154Z,10.80
2018-12-21T21:05:20.909Z,10.70
2018-12-21T21:07:48.501Z,10.80
2018-12-21T21:10:16.119Z,10.80
2018-12-21T21:12:43.734Z,10.70
2018-12-21T21:15:13.911Z,10.60
2018-12-21T21:17:41.884Z,10.60
2018-12-21T21:20:14.599Z,10.60
2018-12-21T21:22:42.462Z,10.70
2018-12-21T21:25:10.229Z,10.70
2018-12-21T21:27:38.464Z,10.70
2018-12-21T21:30:11.164Z,10.70
2018-12-21T21:32:38.743Z,10.60
2018-12-21T21:35:06.980Z,10.60
2018-12-21T21:37:34.663Z,10.60
2018-12-21T21:40:05.278Z,10.60
2018-12-21T21:42:32.976Z,10.50
2018-12-21T21:45:00.626Z,10.50
2018-12-21T21:47:29.044Z,10.50
2018-12-21T21:49:56.639Z,10.50
2018-12-21T21:52:24.313Z,10.50
2018-12-21T21:54:52.459Z,10.40
2018-12-21T21:57:20.150Z,10.60
2018-12-21T21:59:47.807Z,10.60
2018-12-21T22:02:15.393Z,10.60
2018-12-21T22:04:43.065Z,10.60
2018-12-21T22:07:10.724Z,10.60
2018-12-21T22:09:38.321Z,10.50
2018-12-21T22:12:05.948Z,10.50
2018-12-21T22:14:33.648Z,10.40
2018-12-21T22:17:01.225Z,10.30
2018-12-21T22:19:28.857Z,10.30
2018-12-21T22:21:56.462Z,10.20
2018-12-21T22:24:24.022Z,10.20
2018-12-21T22:26:51.845Z,10.10
2018-12-21T22:29:19.677Z,10.00
2018-12-21T22:31:47.550Z,10.00
2018-12-21T22:34:15.127Z,10.10
2018-12-21T22:36:42.763Z,10.10
2018-12-21T22:39:11.198Z,10.10
2018-12-21T22:41:39.293Z,10.10
2018-12-21T22:44:07.507Z,10.10
2018-12-21T22:46:35.302Z,10.10
2018-12-21T22:49:03.033Z,10.20
2018-12-21T22:51:30.611Z,10.10
2018-12-21T22:53:58.146Z,10.20
2018-12-21T22:56:25.761Z,10.10
2018-12-21T22:58:53.296Z,10.00
2018-12-21T23:01:21.111Z,10.10
2018-12-21T23:03:48.726Z,10.10
2018-12-21T23:06:16.381Z,10.10
2018-12-21T23:08:43.967Z,10.00
2018-12-21T23:11:11.632Z,10.10
2018-12-21T23:13:39.166Z,10.00
2018-12-21T23:16:06.781Z,10.00
2018-12-21T23:18:34.416Z,10.00
2018-12-21T23:21:02.011Z,10.00
2018-12-21T23:23:30.266Z,10.10
2018-12-21T23:25:57.843Z,10.10
2018-12-21T23:28:25.562Z,10.10
2018-12-21T23:30:53.407Z,10.20
2018-12-21T23:33:20.947Z,10.20
2018-12-21T23:35:48.581Z,10.20
2018-12-21T23:38:16.082Z,10.20
2018-12-21T23:40:43.651Z,10.20
2018-12-21T23:43:11.250Z,10.20
2018-12-21T23:45:38.861Z,10.20
2018-12-21T23:48:06.476Z,10.20
2018-12-21T23:50:34.051Z,10.20
2018-12-21T23:53:01.866Z,10.20
2018-12-21T23:55:29.500Z,10.20
2018-12-21T23:57:57.097Z,10.20
